Time;durP1;ratioP1;P1;durP2;ratioP2;P2;SDS_P1;SDS_P2;PMS_P1;PMS_P2;Temp;Humidity;BMP_temperature;BMP_pressure;BME280_temperature;BME280_humidity;BME280_pressure;Samples;Min_cycle;Max_cycle;Signal;HPM_P1;HPM_P2
2023/12/05 00:00:56;;;;;;;1.50;1.40;;;;;;;21.09;25.04;99069.31;4554570;28;20052;-54
2023/12/05 00:03:06;;;;;;;1.70;1.60;;;;;;;21.08;25.43;99066.84;4554742;28;20112;-55
2023/12/05 00:05:17;;;;;;;1.80;1.70;;;;;;;21.08;25.21;99064.81;4536616;28;20044;-54
2023/12/05 00:07:28;;;;;;;1.80;1.70;;;;;;;21.07;25.21;99074.66;4552089;28;20498;-55
2023/12/05 00:09:39;;;;;;;1.95;1.73;;;;;;;21.07;25.23;99059.47;4555257;28;20105;-56
2023/12/05 00:11:49;;;;;;;1.70;1.60;;;;;;;21.07;25.43;99074.66;4554217;28;20031;-56
2023/12/05 00:14:00;;;;;;;1.63;1.52;;;;;;;21.07;25.15;99068.09;4554389;28;20033;-55
2023/12/05 00:16:10;;;;;;;1.90;1.70;;;;;;;21.08;25.43;99064.81;4541406;28;20075;-54
2023/12/05 00:18:20;;;;;;;2.10;1.90;;;;;;;21.07;25.46;99063.19;4553299;28;20033;-56
2023/12/05 00:20:31;;;;;;;1.77;1.67;;;;;;;21.07;25.16;99062.34;4534316;28;33574;-57
2023/12/05 00:22:41;;;;;;;1.70;1.60;;;;;;;21.06;25.17;99057.84;4553752;28;20116;-57
2023/12/05 00:24:52;;;;;;;1.58;1.48;;;;;;;21.07;25.35;99051.69;4552661;28;20067;-56
2023/12/05 00:27:02;;;;;;;1.60;1.50;;;;;;;21.07;25.41;99056.59;4554143;28;20086;-54
2023/12/05 00:29:12;;;;;;;1.90;1.80;;;;;;;21.05;25.25;99054.16;4554013;28;20053;-56
2023/12/05 00:31:23;;;;;;;1.60;1.50;;;;;;;21.05;25.24;99054.16;4554795;28;20037;-56
2023/12/05 00:33:33;;;;;;;1.60;1.50;;;;;;;21.06;25.20;99061.50;4552877;28;20040;-53
2023/12/05 00:35:44;;;;;;;1.70;1.50;;;;;;;21.05;25.26;99051.28;4553111;28;20036;-56
2023/12/05 00:37:54;;;;;;;1.70;1.60;;;;;;;21.06;25.26;99052.91;4554667;28;20040;-55
2023/12/05 00:40:05;;;;;;;1.90;1.58;;;;;;;21.06;25.59;99050.03;4553278;28;20037;-54
2023/12/05 00:42:16;;;;;;;1.48;1.38;;;;;;;21.06;25.25;99050.03;4551942;28;21007;-57
2023/12/05 00:44:26;;;;;;;1.90;1.80;;;;;;;21.05;25.23;99039.81;4551938;28;20044;-55
2023/12/05 00:46:37;;;;;;;1.70;1.60;;;;;;;21.05;25.54;99042.66;4552988;28;20151;-58
2023/12/05 00:48:47;;;;;;;1.70;1.60;;;;;;;21.04;25.25;99046.75;4554417;28;20381;-57
2023/12/05 00:50:58;;;;;;;1.70;1.60;;;;;;;21.06;25.45;99037.75;4552528;28;20037;-57
2023/12/05 00:53:08;;;;;;;1.83;1.58;;;;;;;21.05;25.29;99047.56;4552052;28;21399;-56
2023/12/05 00:55:18;;;;;;;1.80;1.70;;;;;;;21.04;25.18;99040.22;4552814;28;20124;-56
2023/12/05 00:57:29;;;;;;;1.75;1.65;;;;;;;21.03;25.48;99038.56;4553244;28;20405;-56
2023/12/05 00:59:39;;;;;;;1.77;1.60;;;;;;;21.03;25.19;99042.25;4554717;28;20136;-56
2023/12/05 01:01:50;;;;;;;1.73;1.63;;;;;;;21.03;25.50;99053.72;4553411;28;20040;-53
2023/12/05 01:04:00;;;;;;;1.73;1.63;;;;;;;21.01;25.32;99050.44;4554056;28;20041;-56
2023/12/05 01:06:11;;;;;;;1.65;1.55;;;;;;;21.03;25.40;99045.13;4552813;28;20106;-53
2023/12/05 01:08:21;;;;;;;1.98;1.75;;;;;;;21.03;25.54;99050.03;4553665;28;20131;-57
2023/12/05 01:10:31;;;;;;;1.60;1.50;;;;;;;21.02;25.21;99049.22;4553996;28;20473;-56
2023/12/05 01:12:42;;;;;;;1.75;1.65;;;;;;;21.02;25.18;99037.75;4554740;28;20050;-58
2023/12/05 01:14:52;;;;;;;1.88;1.70;;;;;;;21.02;25.39;99040.63;4553686;28;20036;-58
2023/12/05 01:17:03;;;;;;;1.75;1.65;;;;;;;21.02;25.33;99037.75;4551068;28;20054;-58
2023/12/05 01:19:14;;;;;;;1.63;1.52;;;;;;;21.01;25.27;99036.09;4553725;28;21313;-57
2023/12/05 01:21:24;;;;;;;1.80;1.70;;;;;;;21.01;25.26;99036.09;4552036;28;20040;-57
2023/12/05 01:23:34;;;;;;;1.77;1.60;;;;;;;21.02;25.39;99034.06;4552972;28;26523;-58
2023/12/05 01:25:45;;;;;;;2.00;1.80;;;;;;;21.02;25.34;99032.00;4552699;28;20099;-56
2023/12/05 01:27:55;;;;;;;1.92;1.73;;;;;;;21.03;25.36;99044.28;4553458;28;20040;-57
2023/12/05 01:30:06;;;;;;;1.75;1.65;;;;;;;21.02;25.45;99042.66;4553116;28;20395;-56
2023/12/05 01:32:17;;;;;;;1.67;1.52;;;;;;;21.01;25.61;99036.09;4552128;28;20027;-56
2023/12/05 01:34:27;;;;;;;1.73;1.63;;;;;;;21.01;25.88;99033.22;4551856;28;20037;-57
2023/12/05 01:36:37;;;;;;;1.70;1.55;;;;;;;21.01;25.59;99033.22;4552092;28;20049;-57
2023/12/05 01:38:48;;;;;;;1.70;1.50;;;;;;;21.01;25.99;99036.09;4554299;28;20072;-56
2023/12/05 01:40:58;;;;;;;1.50;1.40;;;;;;;20.99;25.91;99032.84;4553716;28;20040;-56
2023/12/05 01:43:09;;;;;;;1.75;1.65;;;;;;;20.98;25.85;99031.16;4551353;28;20601;-54
2023/12/05 01:45:19;;;;;;;1.88;1.67;;;;;;;20.99;25.71;99029.97;4535787;28;20103;-56
2023/12/05 01:47:29;;;;;;;1.80;1.70;;;;;;;20.99;25.85;99032.00;4552971;28;20063;-57
2023/12/05 01:49:41;;;;;;;1.70;1.60;;;;;;;20.98;26.11;99030.38;4553981;28;20037;-54
2023/12/05 01:51:52;;;;;;;1.48;1.35;;;;;;;20.98;26.30;99034.03;4553170;28;20050;-56
2023/12/05 01:54:03;;;;;;;1.60;1.50;;;;;;;20.97;26.37;99029.53;4551369;28;20041;-57
2023/12/05 01:56:14;;;;;;;1.48;1.38;;;;;;;20.98;25.91;99022.56;4551835;28;20134;-56
2023/12/05 01:58:25;;;;;;;1.60;1.50;;;;;;;20.96;26.00;99019.31;4552511;28;20056;-55
2023/12/05 02:00:39;;;;;;;1.52;1.42;;;;;;;20.96;26.24;99024.19;4552841;28;20040;-57
2023/12/05 02:02:49;;;;;;;1.40;1.30;;;;;;;20.97;25.99;99022.97;4553350;28;20951;-55
2023/12/05 02:05:00;;;;;;;1.60;1.50;;;;;;;20.97;26.52;99029.53;4551463;28;20155;-57
2023/12/05 02:07:12;;;;;;;1.50;1.40;;;;;;;20.97;26.15;99022.97;4551041;28;20050;-56
2023/12/05 02:09:23;;;;;;;1.50;1.40;;;;;;;20.97;26.24;99028.72;4552104;28;20040;-57
2023/12/05 02:11:34;;;;;;;1.38;1.27;;;;;;;20.96;26.07;99022.19;4551396;28;20037;-53
2023/12/05 02:13:47;;;;;;;1.48;1.38;;;;;;;20.95;25.99;99026.22;4552600;28;20047;-57
2023/12/05 02:16:27;;;;;;;1.55;1.45;;;;;;;20.94;26.07;99018.84;4551331;28;20036;-53
2023/12/05 02:18:46;;;;;;;1.50;1.40;;;;;;;20.93;26.64;99017.19;4525590;28;20061;-57
2023/12/05 02:20:59;;;;;;;1.38;1.27;;;;;;;20.94;26.43;99012.28;4551886;28;20116;-57
2023/12/05 02:23:28;;;;;;;1.50;1.40;;;;;;;20.95;26.12;99014.75;4550750;28;20083;-53
2023/12/05 02:25:57;;;;;;;1.48;1.38;;;;;;;20.94;26.27;99013.13;4551494;28;20828;-56
2023/12/05 02:28:09;;;;;;;1.50;1.40;;;;;;;20.95;26.16;99009.00;4552098;28;20182;-57
2023/12/05 02:30:19;;;;;;;1.25;1.15;;;;;;;20.93;26.38;99002.84;4552104;28;20529;-57
2023/12/05 02:32:29;;;;;;;1.50;1.40;;;;;;;20.94;26.24;99006.56;4534512;28;20129;-56
2023/12/05 02:34:40;;;;;;;1.60;1.50;;;;;;;20.95;26.14;98997.53;4551660;28;20056;-57
2023/12/05 02:37:14;;;;;;;1.52;1.42;;;;;;;20.93;26.26;99000.00;4551613;28;20048;-57
2023/12/05 02:39:56;;;;;;;1.50;1.40;;;;;;;20.93;26.60;98997.13;4551364;28;20187;-56
2023/12/05 02:42:10;;;;;;;1.40;1.30;;;;;;;20.91;26.27;98996.72;4542148;28;20052;-56
2023/12/05 02:44:24;;;;;;;1.20;1.10;;;;;;;20.93;26.48;98994.25;4551631;28;20899;-53
2023/12/05 02:46:37;;;;;;;1.50;1.40;;;;;;;20.93;26.39;99000.00;4550128;28;20051;-57
2023/12/05 02:48:49;;;;;;;1.40;1.10;;;;;;;20.93;26.42;98991.38;4550973;28;20039;-57
2023/12/05 02:51:00;;;;;;;1.30;1.20;;;;;;;20.92;26.46;98995.50;4551714;28;20667;-55
2023/12/05 02:53:10;;;;;;;1.30;1.20;;;;;;;20.93;26.28;98990.59;4538568;28;20422;-55
2023/12/05 02:55:20;;;;;;;1.52;1.42;;;;;;;20.92;26.59;98992.63;4534966;28;20048;-54
2023/12/05 02:57:31;;;;;;;1.40;1.30;;;;;;;20.91;26.69;98995.91;4550995;28;28923;-56
2023/12/05 02:59:41;;;;;;;1.50;1.40;;;;;;;20.91;26.77;98993.88;4550814;28;20052;-55
2023/12/05 03:01:51;;;;;;;1.35;1.25;;;;;;;20.92;26.79;99000.41;4550692;28;20037;-52
2023/12/05 03:04:02;;;;;;;1.20;1.10;;;;;;;20.91;26.77;98995.91;4551185;28;20033;-56
2023/12/05 03:06:12;;;;;;;1.42;1.30;;;;;;;20.91;26.49;98998.78;4552278;28;20090;-57
2023/12/05 03:08:23;;;;;;;1.00;1.00;;;;;;;20.90;26.26;98995.06;4551394;28;20041;-55
2023/12/05 03:10:33;;;;;;;1.20;1.10;;;;;;;20.91;26.71;99001.63;4550103;28;27283;-55
2023/12/05 03:12:43;;;;;;;1.30;1.20;;;;;;;20.89;26.86;98987.72;4550308;28;20123;-54
2023/12/05 03:14:54;;;;;;;1.20;1.10;;;;;;;20.91;26.89;98993.03;4551016;28;20047;-54
2023/12/05 03:17:04;;;;;;;1.35;1.25;;;;;;;20.91;26.42;98987.31;4550667;28;20036;-55
2023/12/05 03:19:14;;;;;;;1.10;1.00;;;;;;;20.89;26.48;98993.44;4550702;28;20036;-57
2023/12/05 03:21:25;;;;;;;1.17;1.08;;;;;;;20.90;26.61;98986.47;4551141;28;20544;-56
2023/12/05 03:23:35;;;;;;;0.90;0.90;;;;;;;20.91;26.72;98990.16;4550816;28;20047;-57
2023/12/05 03:25:46;;;;;;;0.90;0.90;;;;;;;20.90;26.56;98977.88;4551036;28;20079;-56
2023/12/05 03:27:56;;;;;;;0.90;0.90;;;;;;;20.90;26.61;98983.59;4552654;28;20115;-57
2023/12/05 03:30:08;;;;;;;1.10;1.10;;;;;;;20.89;26.72;98981.16;4552010;28;20494;-57
2023/12/05 03:32:18;;;;;;;0.90;0.90;;;;;;;20.90;26.73;98968.47;4550214;28;20191;-56
2023/12/05 03:34:29;;;;;;;1.23;1.10;;;;;;;20.88;26.81;98962.31;4534842;28;20127;-56
2023/12/05 03:36:39;;;;;;;1.20;1.10;;;;;;;20.89;27.04;98964.75;4550797;28;20035;-54
2023/12/05 03:38:49;;;;;;;0.95;0.93;;;;;;;20.88;27.03;98963.13;4551386;28;20061;-54
2023/12/05 03:41:00;;;;;;;0.90;0.90;;;;;;;20.88;27.09;98965.19;4550940;28;23568;-56
2023/12/05 03:43:10;;;;;;;1.05;1.00;;;;;;;20.89;26.92;98961.06;4551344;28;20041;-55
2023/12/05 03:45:21;;;;;;;1.10;1.00;;;;;;;20.88;27.04;98963.13;4550657;28;30119;-53
2023/12/05 03:47:31;;;;;;;1.10;1.05;;;;;;;20.88;27.24;98963.13;4548717;28;20048;-57
2023/12/05 03:49:41;;;;;;;1.08;0.98;;;;;;;20.87;27.18;98967.22;4550706;28;28026;-55
2023/12/05 03:51:52;;;;;;;0.90;0.90;;;;;;;20.88;27.23;98968.03;4552761;28;20043;-57
2023/12/05 03:54:02;;;;;;;1.00;1.00;;;;;;;20.87;27.18;98967.22;4553639;28;20091;-57
2023/12/05 03:56:13;;;;;;;0.88;0.85;;;;;;;20.88;26.93;98968.03;4553959;28;20036;-56
2023/12/05 03:58:24;;;;;;;0.70;0.70;;;;;;;20.87;26.97;98966.41;4554253;28;20028;-57
2023/12/05 04:00:34;;;;;;;1.20;1.10;;;;;;;20.87;27.08;98967.22;4554646;28;20102;-57
2023/12/05 04:02:45;;;;;;;0.90;0.90;;;;;;;20.88;26.98;98968.88;4553467;28;20056;-57
2023/12/05 04:04:55;;;;;;;0.80;0.80;;;;;;;20.88;27.18;98968.03;4554700;28;20052;-56
2023/12/05 04:07:06;;;;;;;0.82;0.82;;;;;;;20.87;27.18;98967.22;4555071;28;20465;-56
2023/12/05 04:09:16;;;;;;;1.08;1.00;;;;;;;20.86;27.22;98962.72;4553841;28;20138;-57
2023/12/05 04:11:31;;;;;;;1.00;0.90;;;;;;;20.87;27.01;98961.47;4552986;28;20381;-56
2023/12/05 04:13:42;;;;;;;0.80;0.80;;;;;;;20.86;26.95;98971.31;4554184;28;20037;-56
2023/12/05 04:15:52;;;;;;;1.10;0.98;;;;;;;20.86;27.08;98965.59;4553486;28;20045;-55
2023/12/05 04:18:03;;;;;;;0.90;0.90;;;;;;;20.85;26.97;98966.81;4553732;28;20048;-55
2023/12/05 04:20:14;;;;;;;0.77;0.77;;;;;;;20.85;27.32;98972.56;4542397;28;20036;-55
2023/12/05 04:22:24;;;;;;;1.10;1.00;;;;;;;20.86;27.32;98962.72;4553978;28;20190;-57
2023/12/05 04:24:34;;;;;;;0.93;0.90;;;;;;;20.86;27.13;98967.63;4554360;28;20128;-56
2023/12/05 04:26:46;;;;;;;1.10;1.00;;;;;;;20.86;27.09;98964.75;4553920;28;20046;-56
2023/12/05 04:28:56;;;;;;;0.88;0.88;;;;;;;20.84;26.86;98959.44;4552889;28;20037;-56
2023/12/05 04:31:07;;;;;;;1.10;1.00;;;;;;;20.85;27.13;98963.13;4552944;28;20856;-57
2023/12/05 04:33:17;;;;;;;0.95;0.95;;;;;;;20.83;27.26;98955.72;4554301;28;20119;-54
2023/12/05 04:35:28;;;;;;;0.95;0.95;;;;;;;20.84;27.28;98968.03;4536439;28;20084;-57
2023/12/05 04:37:38;;;;;;;0.90;0.90;;;;;;;20.85;26.99;98958.22;4552998;28;20040;-55
2023/12/05 04:39:48;;;;;;;0.85;0.85;;;;;;;20.86;26.83;98964.75;4554954;28;20045;-57
2023/12/05 04:41:59;;;;;;;1.08;0.98;;;;;;;20.86;27.14;98959.03;4552693;28;22724;-57
2023/12/05 04:44:09;;;;;;;0.82;0.82;;;;;;;20.85;26.88;98954.53;4536377;28;20045;-57
2023/12/05 04:46:20;;;;;;;0.80;0.80;;;;;;;20.84;27.28;98956.56;4553699;28;20040;-53
2023/12/05 04:48:30;;;;;;;0.85;0.85;;;;;;;20.83;26.97;98955.72;4551866;28;20045;-57
2023/12/05 04:50:40;;;;;;;0.80;0.80;;;;;;;20.86;27.16;98953.28;4537376;28;20045;-55
2023/12/05 04:52:51;;;;;;;0.70;0.70;;;;;;;20.83;26.82;98955.72;4552741;28;20044;-56
2023/12/05 04:55:01;;;;;;;0.60;0.60;;;;;;;20.83;27.23;98961.47;4553315;28;20041;-57
2023/12/05 04:57:12;;;;;;;0.70;0.70;;;;;;;20.84;27.33;98959.44;4551944;28;20090;-57
2023/12/05 04:59:22;;;;;;;0.60;0.60;;;;;;;20.83;27.30;98960.66;4552315;28;27702;-56
2023/12/05 05:01:32;;;;;;;0.75;0.75;;;;;;;20.84;27.10;98959.44;4555118;28;20871;-56
2023/12/05 05:03:43;;;;;;;0.90;0.90;;;;;;;20.84;27.22;98959.44;4553617;28;20051;-57
2023/12/05 05:05:53;;;;;;;0.70;0.70;;;;;;;20.83;27.35;98954.94;4552964;28;20517;-56
2023/12/05 05:08:04;;;;;;;0.85;0.85;;;;;;;20.83;27.43;98961.47;4552642;28;20033;-57
2023/12/05 05:10:14;;;;;;;0.60;0.60;;;;;;;20.85;27.44;98960.25;4553612;28;20074;-56
2023/12/05 05:12:25;;;;;;;0.57;0.57;;;;;;;20.84;27.09;98959.44;4553701;28;20102;-56
2023/12/05 05:14:36;;;;;;;0.70;0.70;;;;;;;20.83;27.28;98960.66;4552699;28;20527;-56
2023/12/05 05:16:46;;;;;;;0.80;0.80;;;;;;;20.83;27.42;98961.47;4551879;28;20136;-56
2023/12/05 05:18:59;;;;;;;0.98;0.90;;;;;;;20.84;27.11;98959.44;4551973;28;20131;-56
2023/12/05 05:21:11;;;;;;;0.80;0.80;;;;;;;20.82;27.27;98964.75;4551938;28;20063;-56
2023/12/05 05:23:21;;;;;;;0.60;0.60;;;;;;;20.83;27.51;98959.84;4553573;28;20143;-56
2023/12/05 05:25:31;;;;;;;0.60;0.60;;;;;;;20.82;27.27;98964.75;4536462;28;20460;-56
2023/12/05 05:27:42;;;;;;;0.55;0.47;;;;;;;20.82;27.66;98961.88;4551879;28;20490;-55
2023/12/05 05:29:53;;;;;;;0.70;0.70;;;;;;;20.82;27.43;98967.63;4552111;28;20082;-56
2023/12/05 05:32:03;;;;;;;0.73;0.70;;;;;;;20.83;27.45;98961.47;4552436;28;20036;-56
2023/12/05 05:34:14;;;;;;;0.50;0.50;;;;;;;20.84;28.12;98959.44;4551977;28;20052;-56
2023/12/05 05:36:24;;;;;;;0.60;0.60;;;;;;;20.82;27.52;98956.16;4552210;28;20149;-57
2023/12/05 05:38:35;;;;;;;0.55;0.55;;;;;;;20.83;27.62;98956.97;4553295;28;20041;-56
2023/12/05 05:40:47;;;;;;;0.50;0.50;;;;;;;20.83;27.73;98954.09;4553141;28;20045;-53
2023/12/05 05:42:57;;;;;;;0.63;0.63;;;;;;;20.82;27.74;98961.09;4541827;28;20091;-57
2023/12/05 05:45:08;;;;;;;0.80;0.80;;;;;;;20.81;27.89;98957.38;4552703;28;20546;-56
2023/12/05 05:47:19;;;;;;;0.60;0.60;;;;;;;20.82;27.53;98964.75;4552227;28;20062;-57
2023/12/05 05:49:29;;;;;;;0.70;0.70;;;;;;;20.79;28.02;98960.66;4552753;28;20448;-54
2023/12/05 05:51:40;;;;;;;0.80;0.80;;;;;;;20.79;28.14;98965.56;4551312;28;20024;-56
2023/12/05 05:53:50;;;;;;;0.85;0.80;;;;;;;20.79;28.12;98954.94;4551054;28;20555;-57
2023/12/05 05:56:01;;;;;;;0.93;0.90;;;;;;;20.80;27.99;98961.50;4543112;28;20064;-52
2023/12/05 05:58:12;;;;;;;0.75;0.75;;;;;;;20.80;28.14;98962.28;4552086;28;20767;-55
2023/12/05 06:00:22;;;;;;;0.80;0.80;;;;;;;20.81;27.96;98966.00;4552929;28;20040;-57
2023/12/05 06:02:33;;;;;;;0.70;0.70;;;;;;;20.83;28.17;98966.41;4551945;28;20485;-55
2023/12/05 06:04:44;;;;;;;0.80;0.80;;;;;;;20.81;28.28;98951.66;4552696;28;20037;-55
2023/12/05 06:06:54;;;;;;;0.70;0.70;;;;;;;20.82;27.92;98958.22;4551840;28;20036;-56
2023/12/05 06:09:05;;;;;;;0.80;0.80;;;;;;;20.80;27.94;98950.81;4552161;28;20040;-53
2023/12/05 06:11:17;;;;;;;0.80;0.80;;;;;;;20.81;28.16;98963.13;4536705;28;21235;-55
2023/12/05 06:13:27;;;;;;;0.70;0.70;;;;;;;20.82;27.84;98969.69;4551928;28;20899;-57
2023/12/05 06:15:37;;;;;;;0.90;0.90;;;;;;;20.82;28.11;98959.00;4550904;28;20043;-56
2023/12/05 06:17:48;;;;;;;0.82;0.82;;;;;;;20.82;28.20;98963.94;4550937;28;28861;-55
2023/12/05 06:19:58;;;;;;;1.38;1.20;;;;;;;20.81;28.16;98960.25;4551312;28;20136;-56
2023/12/05 06:22:09;;;;;;;1.48;1.08;;;;;;;20.80;28.30;98961.50;4550396;28;20112;-57
2023/12/05 06:24:19;;;;;;;1.50;1.40;;;;;;;20.81;27.98;98971.72;4551681;28;20049;-57
2023/12/05 06:26:29;;;;;;;2.53;2.15;;;;;;;20.80;27.97;98968.03;4550538;28;20105;-56
2023/12/05 06:28:40;;;;;;;1.40;1.30;;;;;;;20.80;28.23;98972.97;4551773;28;21915;-57
2023/12/05 06:30:50;;;;;;;1.40;1.30;;;;;;;20.79;27.92;98965.56;4551866;28;20041;-55
2023/12/05 06:33:00;;;;;;;1.52;1.33;;;;;;;20.79;27.82;98971.31;4551964;28;20584;-55
2023/12/05 06:35:11;;;;;;;1.10;1.00;;;;;;;20.80;27.88;98961.50;4550838;28;25411;-56
2023/12/05 06:37:22;;;;;;;1.27;1.17;;;;;;;20.81;27.88;98968.84;4552601;28;20037;-56
2023/12/05 06:39:32;;;;;;;1.77;1.52;;;;;;;20.82;28.05;98973.34;4551465;28;20401;-55
2023/12/05 06:41:42;;;;;;;2.42;1.80;;;;;;;20.83;27.84;98974.19;4552671;28;20044;-56
2023/12/05 06:43:53;;;;;;;1.75;1.60;;;;;;;20.80;28.06;98975.81;4552246;28;20032;-57
2023/12/05 06:46:03;;;;;;;1.95;1.70;;;;;;;20.80;27.85;98976.63;4550862;28;20049;-56
2023/12/05 06:48:15;;;;;;;1.73;1.40;;;;;;;20.81;27.99;98977.47;4552056;28;20452;-56
2023/12/05 06:50:25;;;;;;;1.52;1.42;;;;;;;20.80;28.16;98976.63;4551939;28;21134;-57
2023/12/05 06:52:37;;;;;;;1.73;1.60;;;;;;;20.81;27.89;98968.84;4552131;28;20036;-56
2023/12/05 06:54:48;;;;;;;3.15;2.10;;;;;;;20.81;28.00;98974.59;4551681;28;20025;-56
2023/12/05 06:56:58;;;;;;;2.35;2.10;;;;;;;20.80;28.27;98979.50;4551152;28;20048;-55
2023/12/05 06:59:09;;;;;;;2.13;1.70;;;;;;;20.81;27.90;98974.59;4551713;28;20398;-57
2023/12/05 07:01:19;;;;;;;1.50;1.40;;;;;;;20.79;27.99;98980.72;4550392;28;20370;-52
2023/12/05 07:03:29;;;;;;;1.70;1.60;;;;;;;20.79;27.83;98986.47;4551957;28;20049;-56
2023/12/05 07:05:40;;;;;;;2.30;2.10;;;;;;;20.81;28.33;98991.78;4552211;28;20029;-55
2023/12/05 07:07:51;;;;;;;2.38;2.17;;;;;;;20.77;28.46;98988.13;4551903;28;20060;-58
2023/12/05 07:10:02;;;;;;;2.25;1.80;;;;;;;20.82;27.97;98987.69;4550915;28;20329;-57
2023/12/05 07:12:12;;;;;;;1.70;1.60;;;;;;;20.83;28.05;98993.00;4551606;28;20636;-58
2023/12/05 07:14:23;;;;;;;2.10;1.90;;;;;;;20.82;28.08;98990.56;4534838;28;20092;-57
2023/12/05 07:16:35;;;;;;;2.00;1.73;;;;;;;20.82;28.32;99004.88;4550832;28;21268;-56
2023/12/05 07:18:45;;;;;;;2.80;2.35;;;;;;;20.83;28.16;98997.13;4551191;28;20041;-57
2023/12/05 07:20:56;;;;;;;3.95;2.58;;;;;;;20.83;28.48;99000.81;4550480;28;20044;-57
2023/12/05 07:23:06;;;;;;;2.80;2.30;;;;;;;20.82;28.24;99007.75;4537426;28;20033;-56
2023/12/05 07:25:16;;;;;;;3.50;2.92;;;;;;;20.81;28.32;99000.41;4551801;28;20497;-56
2023/12/05 07:27:27;;;;;;;2.17;1.90;;;;;;;20.82;28.15;99016.34;4554709;28;20043;-55
2023/12/05 07:29:37;;;;;;;1.30;1.20;;;;;;;20.83;28.19;99007.34;4543889;28;20038;-57
2023/12/05 07:31:48;;;;;;;1.50;1.40;;;;;;;20.83;28.26;99015.94;4554540;28;20086;-56
2023/12/05 07:33:58;;;;;;;1.25;1.15;;;;;;;20.84;28.14;99013.91;4543017;28;20056;-57
2023/12/05 07:36:09;;;;;;;1.20;1.10;;;;;;;20.83;28.09;99024.56;4555212;28;20098;-53
2023/12/05 07:38:20;;;;;;;1.30;1.20;;;;;;;20.83;28.45;99018.81;4554036;28;20045;-57
2023/12/05 07:40:30;;;;;;;1.85;1.65;;;;;;;20.83;28.71;99024.56;4554695;28;20028;-54
2023/12/05 07:42:41;;;;;;;1.52;1.33;;;;;;;20.83;28.71;99030.28;4542562;28;20071;-55
2023/12/05 07:44:51;;;;;;;1.33;1.23;;;;;;;20.84;28.44;99036.84;4554406;28;20127;-56
2023/12/05 07:47:03;;;;;;;1.30;1.10;;;;;;;20.83;28.42;99036.03;4554122;28;20028;-55
2023/12/05 07:49:13;;;;;;;1.20;1.10;;;;;;;20.82;28.80;99036.44;4555389;28;20040;-56
2023/12/05 07:51:24;;;;;;;1.20;1.10;;;;;;;20.83;28.69;99038.09;4553271;28;20036;-53
2023/12/05 07:53:34;;;;;;;1.30;1.20;;;;;;;20.82;28.58;99041.38;4554327;28;20493;-53
2023/12/05 07:55:44;;;;;;;2.90;2.60;;;;;;;20.82;28.75;99045.03;4554444;28;20045;-55
2023/12/05 07:57:55;;;;;;;4.20;3.80;;;;;;;20.98;36.69;99048.38;4553815;28;20495;-56
2023/12/05 08:00:09;;;;;;;4.55;3.70;;;;;;;21.27;31.37;99047.19;4554172;28;20099;-56
2023/12/05 08:02:22;;;;;;;2.92;2.63;;;;;;;20.97;29.35;99052.50;4554683;28;20580;-54
2023/12/05 08:04:33;;;;;;;1.70;1.40;;;;;;;20.91;29.20;99054.09;4553196;28;20049;-56
2023/12/05 08:06:43;;;;;;;1.50;1.40;;;;;;;20.90;28.92;99055.28;4553773;28;20128;-55
2023/12/05 08:08:54;;;;;;;1.40;1.30;;;;;;;20.88;29.61;99049.19;4554130;28;20158;-56
2023/12/05 08:11:05;;;;;;;1.45;1.30;;;;;;;20.85;29.27;99050.00;4554307;28;20045;-56
2023/12/05 08:13:16;;;;;;;3.08;2.40;;;;;;;20.85;29.36;99055.72;4553660;28;20040;-55
2023/12/05 08:15:26;;;;;;;2.40;2.00;;;;;;;20.87;29.39;99055.31;4553223;28;20576;-53
2023/12/05 08:17:37;;;;;;;3.10;2.40;;;;;;;20.88;29.23;99056.94;4552779;28;20033;-56
2023/12/05 08:19:47;;;;;;;3.22;2.60;;;;;;;20.87;29.52;99058.19;4551947;28;20045;-57
2023/12/05 08:21:57;;;;;;;2.30;1.90;;;;;;;20.87;29.91;99063.91;4551723;28;20029;-57
2023/12/05 08:24:08;;;;;;;2.67;2.10;;;;;;;20.86;29.90;99060.22;4553312;28;20091;-54
2023/12/05 08:26:19;;;;;;;1.20;1.10;;;;;;;20.87;29.97;99063.91;4553919;28;20075;-57
2023/12/05 08:28:30;;;;;;;1.10;1.00;;;;;;;20.86;29.94;99068.81;4553454;28;20657;-57
2023/12/05 08:30:41;;;;;;;1.40;1.30;;;;;;;20.87;29.59;99069.66;4534032;28;20107;-55
2023/12/05 08:32:51;;;;;;;1.10;1.00;;;;;;;20.87;29.91;99073.31;4552115;28;20064;-56
2023/12/05 08:35:02;;;;;;;1.50;1.40;;;;;;;20.86;30.13;99077.44;4552867;28;20065;-55
2023/12/05 08:37:12;;;;;;;1.50;1.40;;;;;;;20.88;30.14;99072.13;4553654;28;20494;-57
2023/12/05 08:39:22;;;;;;;1.85;1.60;;;;;;;20.88;29.98;99074.16;4552746;28;20044;-55
2023/12/05 08:41:33;;;;;;;2.33;2.13;;;;;;;20.88;30.03;99066.38;4553177;28;20127;-55
2023/12/05 08:43:44;;;;;;;3.25;2.63;;;;;;;20.88;30.23;99074.97;4552631;28;20450;-55
2023/12/05 08:45:54;;;;;;;2.80;2.40;;;;;;;20.88;29.98;99069.25;4554665;28;20899;-55
2023/12/05 08:48:05;;;;;;;1.33;1.23;;;;;;;20.86;29.85;99073.72;4553546;28;20414;-54
2023/12/05 08:50:15;;;;;;;1.40;1.30;;;;;;;20.87;30.02;99076.19;4553616;28;20024;-56
2023/12/05 08:52:25;;;;;;;1.20;1.10;;;;;;;20.87;30.04;99070.47;4553183;28;20037;-56
2023/12/05 08:54:36;;;;;;;1.23;1.13;;;;;;;20.88;30.23;99083.59;4554257;28;20039;-52
2023/12/05 08:56:46;;;;;;;1.13;1.00;;;;;;;20.88;29.76;99074.97;4552915;28;20064;-56
2023/12/05 08:58:56;;;;;;;1.20;1.10;;;;;;;20.88;30.21;99077.03;4552622;28;20049;-56
2023/12/05 09:01:10;;;;;;;1.27;1.17;;;;;;;20.89;30.20;99078.66;4552033;28;20045;-56
2023/12/05 09:03:20;;;;;;;1.23;1.10;;;;;;;20.90;30.38;99075.38;4553115;28;20036;-56
2023/12/05 09:05:30;;;;;;;1.20;1.10;;;;;;;20.88;30.11;99077.03;4534212;28;20068;-54
2023/12/05 09:07:41;;;;;;;1.02;0.95;;;;;;;20.89;30.33;99088.09;4537050;28;20038;-54
2023/12/05 09:09:51;;;;;;;1.23;1.13;;;;;;;20.91;30.07;99085.63;4553064;28;20147;-56
2023/12/05 09:12:02;;;;;;;1.10;1.00;;;;;;;20.90;30.16;99086.84;4552514;28;20481;-54
2023/12/05 09:14:13;;;;;;;1.20;1.10;;;;;;;20.91;30.30;99097.13;4551892;28;20037;-56
2023/12/05 09:16:23;;;;;;;1.20;1.10;;;;;;;20.91;30.26;99094.25;4552429;28;20037;-56
2023/12/05 09:18:33;;;;;;;1.08;0.98;;;;;;;20.91;30.28;99087.69;4551809;28;25331;-56
2023/12/05 09:20:44;;;;;;;1.10;1.00;;;;;;;20.91;30.42;99093.41;4553041;28;20072;-56
2023/12/05 09:22:54;;;;;;;1.20;1.10;;;;;;;20.92;30.62;99095.03;4553120;28;20128;-56
2023/12/05 09:25:06;;;;;;;1.55;1.33;;;;;;;20.92;30.60;99098.75;4551267;28;20041;-56
2023/12/05 09:27:17;;;;;;;1.85;1.50;;;;;;;20.92;30.90;99104.47;4550065;28;20045;-54
2023/12/05 09:29:27;;;;;;;1.30;1.20;;;;;;;20.93;31.01;99097.50;4551629;28;20065;-56
2023/12/05 09:31:38;;;;;;;5.47;3.60;;;;;;;20.92;30.89;99101.63;4551385;28;20051;-56
2023/12/05 09:33:49;;;;;;;6.15;4.03;;;;;;;20.92;30.73;99101.63;4551932;28;20147;-55
2023/12/05 09:36:00;;;;;;;2.10;1.60;;;;;;;20.94;30.76;99109.81;4552057;28;20179;-55
2023/12/05 09:38:10;;;;;;;1.35;1.20;;;;;;;20.93;31.03;99105.31;4533756;28;20178;-56
2023/12/05 09:40:20;;;;;;;1.65;1.55;;;;;;;20.93;31.30;99105.31;4552091;28;20116;-54
2023/12/05 09:42:34;;;;;;;1.30;1.20;;;;;;;20.92;31.30;99106.50;4552255;28;20128;-56
2023/12/05 09:44:47;;;;;;;0.80;0.80;;;;;;;20.92;31.32;99106.50;4551319;28;20048;-55
2023/12/05 09:47:01;;;;;;;0.65;0.65;;;;;;;20.93;31.56;99102.44;4551622;28;20031;-55
2023/12/05 09:49:14;;;;;;;0.50;0.50;;;;;;;20.93;31.75;99106.09;4552064;28;20035;-53
2023/12/05 09:51:24;;;;;;;0.50;0.50;;;;;;;20.95;31.58;99112.28;4551346;28;20111;-56
2023/12/05 09:53:35;;;;;;;0.30;0.30;;;;;;;20.94;31.70;99104.91;4551793;28;20094;-57
2023/12/05 09:55:46;;;;;;;0.43;0.43;;;;;;;20.94;32.00;99116.38;4553765;28;20389;-57
2023/12/05 09:57:57;;;;;;;0.30;0.30;;;;;;;20.96;32.13;99113.09;4551106;28;20040;-55
2023/12/05 10:00:08;;;;;;;0.40;0.40;;;;;;;20.94;32.09;99099.16;4551968;28;20043;-55
2023/12/05 10:02:23;;;;;;;0.65;0.40;;;;;;;20.96;32.33;99110.22;4550636;28;20045;-53
2023/12/05 10:04:44;;;;;;;0.50;0.50;;;;;;;20.94;32.14;99104.06;4552427;28;20108;-56
2023/12/05 10:06:58;;;;;;;0.50;0.50;;;;;;;20.95;32.28;99100.78;4551094;28;20730;-57
2023/12/05 10:09:10;;;;;;;0.40;0.40;;;;;;;20.94;32.54;99095.47;4551484;28;20033;-57
2023/12/05 10:11:23;;;;;;;0.40;0.40;;;;;;;20.93;32.40;99103.25;4552891;28;20045;-57
2023/12/05 10:13:34;;;;;;;0.30;0.30;;;;;;;20.93;32.14;99099.56;4551174;28;20037;-57
2023/12/05 10:15:45;;;;;;;0.40;0.40;;;;;;;20.94;32.33;99104.06;4551738;28;20117;-57
2023/12/05 10:17:55;;;;;;;0.30;0.30;;;;;;;20.93;32.20;99100.38;4552554;28;20033;-57